sensor_id;sensor_type;location;lat;lon;timestamp;P1;durP1;ratioP1;P2;durP2;ratioP2
64609;SDS011;51019;46.090;6.350;2023-01-16T00:00:23;15.43;;;5.60;;
64609;SDS011;51019;46.090;6.350;2023-01-16T00:02:50;16.92;;;6.28;;
64609;SDS011;51019;46.090;6.350;2023-01-16T00:05:18;14.43;;;5.28;;
64609;SDS011;51019;46.090;6.350;2023-01-16T00:07:45;16.05;;;6.18;;
64609;SDS011;51019;46.090;6.350;2023-01-16T00:10:13;13.35;;;5.38;;
64609;SDS011;51019;46.090;6.350;2023-01-16T00:12:41;15.48;;;4.97;;
64609;SDS011;51019;46.090;6.350;2023-01-16T00:15:10;13.27;;;3.63;;
64609;SDS011;51019;46.090;6.350;2023-01-16T00:17:38;11.63;;;3.03;;
64609;SDS011;51019;46.090;6.350;2023-01-16T00:20:06;12.15;;;3.28;;
64609;SDS011;51019;46.090;6.350;2023-01-16T00:22:34;13.10;;;4.05;;
64609;SDS011;51019;46.090;6.350;2023-01-16T00:25:01;13.80;;;4.32;;
64609;SDS011;51019;46.090;6.350;2023-01-16T00:27:28;14.02;;;4.35;;
64609;SDS011;51019;46.090;6.350;2023-01-16T00:29:55;14.52;;;3.92;;
64609;SDS011;51019;46.090;6.350;2023-01-16T00:32:25;14.30;;;3.97;;
64609;SDS011;51019;46.090;6.350;2023-01-16T00:34:52;11.52;;;3.65;;
64609;SDS011;51019;46.090;6.350;2023-01-16T00:37:19;12.55;;;3.55;;
64609;SDS011;51019;46.090;6.350;2023-01-16T00:39:46;12.98;;;3.88;;
64609;SDS011;51019;46.090;6.350;2023-01-16T00:42:14;13.00;;;3.97;;
64609;SDS011;51019;46.090;6.350;2023-01-16T00:44:41;12.98;;;3.47;;
64609;SDS011;51019;46.090;6.350;2023-01-16T00:47:09;12.15;;;3.42;;
64609;SDS011;51019;46.090;6.350;2023-01-16T00:49:38;11.82;;;3.90;;
64609;SDS011;51019;46.090;6.350;2023-01-16T00:52:06;12.75;;;3.95;;
64609;SDS011;51019;46.090;6.350;2023-01-16T00:54:33;13.98;;;4.13;;
64609;SDS011;51019;46.090;6.350;2023-01-16T00:57:01;11.75;;;3.53;;
64609;SDS011;51019;46.090;6.350;2023-01-16T00:59:28;13.30;;;4.20;;
64609;SDS011;51019;46.090;6.350;2023-01-16T01:01:55;12.82;;;3.67;;
64609;SDS011;51019;46.090;6.350;2023-01-16T01:04:23;11.93;;;3.28;;
64609;SDS011;51019;46.090;6.350;2023-01-16T01:06:52;9.88;;;3.17;;
64609;SDS011;51019;46.090;6.350;2023-01-16T01:09:19;11.50;;;3.10;;
64609;SDS011;51019;46.090;6.350;2023-01-16T01:11:47;11.35;;;2.83;;
64609;SDS011;51019;46.090;6.350;2023-01-16T01:14:23;13.38;;;2.80;;
64609;SDS011;51019;46.090;6.350;2023-01-16T01:16:50;10.85;;;3.28;;
64609;SDS011;51019;46.090;6.350;2023-01-16T01:19:18;12.18;;;3.13;;
64609;SDS011;51019;46.090;6.350;2023-01-16T01:21:46;12.27;;;2.95;;
64609;SDS011;51019;46.090;6.350;2023-01-16T01:24:15;11.27;;;3.20;;
64609;SDS011;51019;46.090;6.350;2023-01-16T01:26:42;12.30;;;3.05;;
64609;SDS011;51019;46.090;6.350;2023-01-16T01:29:09;9.57;;;2.50;;
64609;SDS011;51019;46.090;6.350;2023-01-16T01:31:37;8.48;;;2.17;;
64609;SDS011;51019;46.090;6.350;2023-01-16T01:34:04;8.18;;;2.47;;
64609;SDS011;51019;46.090;6.350;2023-01-16T01:36:32;7.72;;;2.10;;
64609;SDS011;51019;46.090;6.350;2023-01-16T01:38:59;9.82;;;2.40;;
64609;SDS011;51019;46.090;6.350;2023-01-16T01:41:28;7.43;;;2.13;;
64609;SDS011;51019;46.090;6.350;2023-01-16T01:43:55;10.07;;;2.17;;
64609;SDS011;51019;46.090;6.350;2023-01-16T01:46:24;8.52;;;2.17;;
64609;SDS011;51019;46.090;6.350;2023-01-16T01:48:55;11.63;;;2.72;;
64609;SDS011;51019;46.090;6.350;2023-01-16T01:53:56;8.40;;;2.30;;
64609;SDS011;51019;46.090;6.350;2023-01-16T01:56:28;11.98;;;2.95;;
64609;SDS011;51019;46.090;6.350;2023-01-16T01:59:01;11.05;;;2.65;;
64609;SDS011;51019;46.090;6.350;2023-01-16T02:01:33;11.20;;;2.90;;
64609;SDS011;51019;46.090;6.350;2023-01-16T02:04:02;9.15;;;2.17;;
64609;SDS011;51019;46.090;6.350;2023-01-16T02:06:36;6.10;;;1.80;;
64609;SDS011;51019;46.090;6.350;2023-01-16T02:09:09;10.27;;;2.80;;
64609;SDS011;51019;46.090;6.350;2023-01-16T02:11:42;11.43;;;2.60;;
64609;SDS011;51019;46.090;6.350;2023-01-16T02:14:15;8.07;;;2.03;;
64609;SDS011;51019;46.090;6.350;2023-01-16T02:16:43;8.63;;;2.10;;
64609;SDS011;51019;46.090;6.350;2023-01-16T02:19:31;8.18;;;2.20;;
64609;SDS011;51019;46.090;6.350;2023-01-16T02:28:25;7.53;;;1.90;;
64609;SDS011;51019;46.090;6.350;2023-01-16T02:31:19;8.18;;;2.00;;
64609;SDS011;51019;46.090;6.350;2023-01-16T02:33:58;6.30;;;1.90;;
64609;SDS011;51019;46.090;6.350;2023-01-16T02:36:39;5.97;;;1.90;;
64609;SDS011;51019;46.090;6.350;2023-01-16T02:39:16;9.38;;;2.10;;
64609;SDS011;51019;46.090;6.350;2023-01-16T02:41:51;7.95;;;2.03;;
64609;SDS011;51019;46.090;6.350;2023-01-16T02:44:28;9.77;;;2.72;;
64609;SDS011;51019;46.090;6.350;2023-01-16T02:47:09;8.40;;;1.83;;
64609;SDS011;51019;46.090;6.350;2023-01-16T02:49:44;10.10;;;2.38;;
64609;SDS011;51019;46.090;6.350;2023-01-16T02:52:17;11.15;;;2.50;;
64609;SDS011;51019;46.090;6.350;2023-01-16T02:54:52;10.02;;;2.60;;
64609;SDS011;51019;46.090;6.350;2023-01-16T02:57:24;11.27;;;2.33;;
64609;SDS011;51019;46.090;6.350;2023-01-16T02:59:56;7.50;;;1.80;;
64609;SDS011;51019;46.090;6.350;2023-01-16T03:02:25;7.05;;;1.70;;
64609;SDS011;51019;46.090;6.350;2023-01-16T03:04:53;9.80;;;2.10;;
64609;SDS011;51019;46.090;6.350;2023-01-16T03:07:31;6.03;;;1.70;;
64609;SDS011;51019;46.090;6.350;2023-01-16T03:13:11;6.88;;;1.60;;
64609;SDS011;51019;46.090;6.350;2023-01-16T03:15:49;6.72;;;1.67;;
64609;SDS011;51019;46.090;6.350;2023-01-16T03:18:32;6.55;;;1.70;;
64609;SDS011;51019;46.090;6.350;2023-01-16T03:21:08;6.82;;;1.80;;
64609;SDS011;51019;46.090;6.350;2023-01-16T03:23:40;7.30;;;1.83;;
64609;SDS011;51019;46.090;6.350;2023-01-16T03:26:18;7.60;;;1.90;;
64609;SDS011;51019;46.090;6.350;2023-01-16T03:28:55;6.05;;;1.50;;
64609;SDS011;51019;46.090;6.350;2023-01-16T03:31:32;5.95;;;1.50;;
64609;SDS011;51019;46.090;6.350;2023-01-16T03:34:10;6.13;;;1.75;;
64609;SDS011;51019;46.090;6.350;2023-01-16T03:36:46;5.18;;;1.65;;
64609;SDS011;51019;46.090;6.350;2023-01-16T03:39:33;7.78;;;2.00;;
64609;SDS011;51019;46.090;6.350;2023-01-16T03:42:07;9.77;;;2.53;;
64609;SDS011;51019;46.090;6.350;2023-01-16T03:44:40;7.75;;;1.80;;
64609;SDS011;51019;46.090;6.350;2023-01-16T03:47:13;7.05;;;1.73;;
64609;SDS011;51019;46.090;6.350;2023-01-16T03:49:48;6.90;;;1.60;;
64609;SDS011;51019;46.090;6.350;2023-01-16T03:52:21;9.48;;;1.88;;
64609;SDS011;51019;46.090;6.350;2023-01-16T03:54:55;6.40;;;1.60;;
64609;SDS011;51019;46.090;6.350;2023-01-16T03:57:29;5.18;;;1.35;;
64609;SDS011;51019;46.090;6.350;2023-01-16T03:59:59;6.18;;;1.55;;
64609;SDS011;51019;46.090;6.350;2023-01-16T04:02:30;6.22;;;1.58;;
64609;SDS011;51019;46.090;6.350;2023-01-16T04:05:07;4.22;;;1.50;;
64609;SDS011;51019;46.090;6.350;2023-01-16T04:07:38;4.20;;;1.35;;
64609;SDS011;51019;46.090;6.350;2023-01-16T04:10:11;4.05;;;1.35;;
64609;SDS011;51019;46.090;6.350;2023-01-16T04:12:43;3.72;;;1.33;;
64609;SDS011;51019;46.090;6.350;2023-01-16T04:15:14;4.85;;;1.70;;
64609;SDS011;51019;46.090;6.350;2023-01-16T04:17:44;5.95;;;1.50;;
64609;SDS011;51019;46.090;6.350;2023-01-16T04:20:13;5.72;;;1.35;;
64609;SDS011;51019;46.090;6.350;2023-01-16T04:22:41;4.90;;;1.20;;
64609;SDS011;51019;46.090;6.350;2023-01-16T04:25:14;5.25;;;1.20;;
64609;SDS011;51019;46.090;6.350;2023-01-16T04:27:42;12.77;;;1.60;;
64609;SDS011;51019;46.090;6.350;2023-01-16T04:30:10;8.93;;;2.25;;
64609;SDS011;51019;46.090;6.350;2023-01-16T04:32:40;6.20;;;1.48;;
64609;SDS011;51019;46.090;6.350;2023-01-16T04:35:08;5.18;;;1.52;;
64609;SDS011;51019;46.090;6.350;2023-01-16T04:37:38;6.50;;;1.50;;
64609;SDS011;51019;46.090;6.350;2023-01-16T04:40:09;5.43;;;1.80;;
64609;SDS011;51019;46.090;6.350;2023-01-16T04:42:37;7.50;;;1.80;;
64609;SDS011;51019;46.090;6.350;2023-01-16T04:45:05;4.90;;;1.50;;
64609;SDS011;51019;46.090;6.350;2023-01-16T04:47:33;5.20;;;1.35;;
64609;SDS011;51019;46.090;6.350;2023-01-16T04:50:01;5.03;;;1.42;;
64609;SDS011;51019;46.090;6.350;2023-01-16T04:52:28;4.50;;;1.50;;
64609;SDS011;51019;46.090;6.350;2023-01-16T04:54:57;9.25;;;1.90;;
64609;SDS011;51019;46.090;6.350;2023-01-16T04:57:25;5.70;;;1.48;;
64609;SDS011;51019;46.090;6.350;2023-01-16T04:59:52;8.20;;;1.77;;
64609;SDS011;51019;46.090;6.350;2023-01-16T05:02:20;7.68;;;1.75;;
64609;SDS011;51019;46.090;6.350;2023-01-16T05:04:47;8.00;;;1.90;;
64609;SDS011;51019;46.090;6.350;2023-01-16T05:07:14;7.32;;;1.60;;
64609;SDS011;51019;46.090;6.350;2023-01-16T05:09:41;6.78;;;1.77;;
64609;SDS011;51019;46.090;6.350;2023-01-16T05:12:11;8.27;;;1.95;;
64609;SDS011;51019;46.090;6.350;2023-01-16T05:14:38;7.13;;;1.80;;
64609;SDS011;51019;46.090;6.350;2023-01-16T05:17:06;5.60;;;1.90;;
64609;SDS011;51019;46.090;6.350;2023-01-16T05:19:33;5.65;;;1.70;;
64609;SDS011;51019;46.090;6.350;2023-01-16T05:22:00;9.77;;;2.00;;
64609;SDS011;51019;46.090;6.350;2023-01-16T05:24:27;8.05;;;2.13;;
64609;SDS011;51019;46.090;6.350;2023-01-16T05:26:55;5.22;;;1.55;;
64609;SDS011;51019;46.090;6.350;2023-01-16T05:29:25;5.28;;;1.55;;
64609;SDS011;51019;46.090;6.350;2023-01-16T05:31:52;6.25;;;1.60;;
64609;SDS011;51019;46.090;6.350;2023-01-16T05:34:20;5.60;;;1.45;;
64609;SDS011;51019;46.090;6.350;2023-01-16T05:36:47;8.05;;;1.85;;
64609;SDS011;51019;46.090;6.350;2023-01-16T05:39:14;6.93;;;1.55;;
64609;SDS011;51019;46.090;6.350;2023-01-16T05:41:42;6.65;;;1.75;;
64609;SDS011;51019;46.090;6.350;2023-01-16T05:44:10;4.57;;;1.40;;
64609;SDS011;51019;46.090;6.350;2023-01-16T05:46:39;5.43;;;1.50;;
64609;SDS011;51019;46.090;6.350;2023-01-16T05:49:06;8.45;;;1.60;;
64609;SDS011;51019;46.090;6.350;2023-01-16T05:51:33;6.20;;;1.40;;
64609;SDS011;51019;46.090;6.350;2023-01-16T05:54:01;4.03;;;1.30;;
64609;SDS011;51019;46.090;6.350;2023-01-16T05:56:28;5.78;;;1.70;;
64609;SDS011;51019;46.090;6.350;2023-01-16T05:58:55;6.40;;;1.50;;
64609;SDS011;51019;46.090;6.350;2023-01-16T06:01:23;4.43;;;1.35;;
64609;SDS011;51019;46.090;6.350;2023-01-16T06:03:52;6.97;;;1.70;;
64609;SDS011;51019;46.090;6.350;2023-01-16T06:06:19;6.75;;;1.88;;
64609;SDS011;51019;46.090;6.350;2023-01-16T06:08:47;8.40;;;1.98;;
64609;SDS011;51019;46.090;6.350;2023-01-16T06:11:15;7.32;;;1.80;;
64609;SDS011;51019;46.090;6.350;2023-01-16T06:13:42;11.63;;;3.15;;
64609;SDS011;51019;46.090;6.350;2023-01-16T06:16:09;8.05;;;2.22;;
64609;SDS011;51019;46.090;6.350;2023-01-16T06:18:37;9.60;;;2.80;;
64609;SDS011;51019;46.090;6.350;2023-01-16T06:21:06;7.32;;;1.90;;
64609;SDS011;51019;46.090;6.350;2023-01-16T06:23:33;9.70;;;1.63;;
64609;SDS011;51019;46.090;6.350;2023-01-16T06:26:01;8.43;;;2.05;;
64609;SDS011;51019;46.090;6.350;2023-01-16T06:28:30;8.55;;;1.77;;
64609;SDS011;51019;46.090;6.350;2023-01-16T06:30:58;9.20;;;1.83;;
64609;SDS011;51019;46.090;6.350;2023-01-16T06:33:26;7.03;;;1.90;;
64609;SDS011;51019;46.090;6.350;2023-01-16T06:35:53;5.57;;;1.70;;
64609;SDS011;51019;46.090;6.350;2023-01-16T06:38:22;7.57;;;1.70;;
64609;SDS011;51019;46.090;6.350;2023-01-16T06:40:51;7.22;;;2.17;;
64609;SDS011;51019;46.090;6.350;2023-01-16T06:43:22;5.53;;;1.60;;
64609;SDS011;51019;46.090;6.350;2023-01-16T06:45:49;9.45;;;2.13;;
64609;SDS011;51019;46.090;6.350;2023-01-16T06:48:17;8.07;;;1.92;;
64609;SDS011;51019;46.090;6.350;2023-01-16T06:50:45;8.82;;;2.15;;
64609;SDS011;51019;46.090;6.350;2023-01-16T06:53:13;9.18;;;2.45;;
64609;SDS011;51019;46.090;6.350;2023-01-16T06:55:44;8.57;;;2.15;;
64609;SDS011;51019;46.090;6.350;2023-01-16T06:58:12;7.00;;;2.05;;
64609;SDS011;51019;46.090;6.350;2023-01-16T07:00:41;8.38;;;2.03;;
64609;SDS011;51019;46.090;6.350;2023-01-16T07:03:08;7.70;;;2.20;;
64609;SDS011;51019;46.090;6.350;2023-01-16T07:05:36;9.15;;;2.40;;
64609;SDS011;51019;46.090;6.350;2023-01-16T07:08:03;9.18;;;2.40;;
64609;SDS011;51019;46.090;6.350;2023-01-16T07:10:31;8.93;;;2.15;;
64609;SDS011;51019;46.090;6.350;2023-01-16T07:13:00;8.65;;;2.38;;
64609;SDS011;51019;46.090;6.350;2023-01-16T07:15:28;7.50;;;2.17;;
64609;SDS011;51019;46.090;6.350;2023-01-16T07:18:12;8.50;;;2.10;;
64609;SDS011;51019;46.090;6.350;2023-01-16T07:20:59;8.95;;;2.10;;
64609;SDS011;51019;46.090;6.350;2023-01-16T07:23:46;10.23;;;2.30;;
64609;SDS011;51019;46.090;6.350;2023-01-16T07:26:16;4.95;;;1.38;;
64609;SDS011;51019;46.090;6.350;2023-01-16T07:28:47;3.08;;;1.23;;
64609;SDS011;51019;46.090;6.350;2023-01-16T07:31:16;3.00;;;1.10;;
64609;SDS011;51019;46.090;6.350;2023-01-16T07:33:44;3.42;;;1.27;;
64609;SDS011;51019;46.090;6.350;2023-01-16T07:36:11;3.97;;;1.30;;
64609;SDS011;51019;46.090;6.350;2023-01-16T07:38:39;4.15;;;1.10;;
64609;SDS011;51019;46.090;6.350;2023-01-16T07:41:07;4.40;;;1.30;;
64609;SDS011;51019;46.090;6.350;2023-01-16T07:43:34;5.90;;;1.42;;
64609;SDS011;51019;46.090;6.350;2023-01-16T07:46:04;4.95;;;1.30;;
64609;SDS011;51019;46.090;6.350;2023-01-16T07:48:31;3.78;;;1.15;;
64609;SDS011;51019;46.090;6.350;2023-01-16T07:50:59;6.10;;;1.90;;
64609;SDS011;51019;46.090;6.350;2023-01-16T07:53:27;2.92;;;1.20;;
64609;SDS011;51019;46.090;6.350;2023-01-16T07:55:56;2.75;;;1.08;;
64609;SDS011;51019;46.090;6.350;2023-01-16T07:58:24;2.85;;;1.13;;
64609;SDS011;51019;46.090;6.350;2023-01-16T08:00:52;2.25;;;1.02;;
64609;SDS011;51019;46.090;6.350;2023-01-16T08:03:22;4.75;;;1.23;;
64609;SDS011;51019;46.090;6.350;2023-01-16T08:05:54;2.70;;;0.93;;
64609;SDS011;51019;46.090;6.350;2023-01-16T08:08:21;1.00;;;0.65;;
64609;SDS011;51019;46.090;6.350;2023-01-16T08:10:52;3.90;;;1.13;;
64609;SDS011;51019;46.090;6.350;2023-01-16T08:13:21;2.58;;;1.10;;
64609;SDS011;51019;46.090;6.350;2023-01-16T08:15:49;3.63;;;1.10;;
64609;SDS011;51019;46.090;6.350;2023-01-16T08:18:17;4.45;;;1.35;;
64609;SDS011;51019;46.090;6.350;2023-01-16T08:20:46;7.18;;;1.50;;
64609;SDS011;51019;46.090;6.350;2023-01-16T08:23:14;6.70;;;1.65;;
64609;SDS011;51019;46.090;6.350;2023-01-16T08:25:42;5.70;;;1.38;;
64609;SDS011;51019;46.090;6.350;2023-01-16T08:28:09;1.45;;;1.00;;
64609;SDS011;51019;46.090;6.350;2023-01-16T08:30:36;1.50;;;0.77;;
64609;SDS011;51019;46.090;6.350;2023-01-16T08:33:03;3.42;;;1.10;;
64609;SDS011;51019;46.090;6.350;2023-01-16T08:35:31;6.00;;;1.40;;
64609;SDS011;51019;46.090;6.350;2023-01-16T08:38:00;4.93;;;1.50;;
64609;SDS011;51019;46.090;6.350;2023-01-16T08:40:28;5.95;;;1.30;;
64609;SDS011;51019;46.090;6.350;2023-01-16T08:42:55;2.75;;;1.00;;
64609;SDS011;51019;46.090;6.350;2023-01-16T08:45:40;6.38;;;1.20;;
64609;SDS011;51019;46.090;6.350;2023-01-16T08:48:24;5.30;;;1.33;;
64609;SDS011;51019;46.090;6.350;2023-01-16T08:51:13;5.40;;;1.30;;
64609;SDS011;51019;46.090;6.350;2023-01-16T08:53:53;6.72;;;1.40;;
64609;SDS011;51019;46.090;6.350;2023-01-16T08:56:22;1.33;;;0.90;;
64609;SDS011;51019;46.090;6.350;2023-01-16T08:58:49;6.35;;;1.40;;
64609;SDS011;51019;46.090;6.350;2023-01-16T09:01:17;4.78;;;1.40;;
64609;SDS011;51019;46.090;6.350;2023-01-16T09:03:45;9.45;;;1.85;;
64609;SDS011;51019;46.090;6.350;2023-01-16T09:06:14;6.60;;;1.48;;
64609;SDS011;51019;46.090;6.350;2023-01-16T09:08:41;5.80;;;2.03;;
64609;SDS011;51019;46.090;6.350;2023-01-16T09:11:10;2.78;;;1.10;;
64609;SDS011;51019;46.090;6.350;2023-01-16T09:13:54;1.02;;;0.70;;
64609;SDS011;51019;46.090;6.350;2023-01-16T09:16:25;3.83;;;1.02;;
64609;SDS011;51019;46.090;6.350;2023-01-16T09:18:53;0.65;;;0.63;;
64609;SDS011;51019;46.090;6.350;2023-01-16T09:21:20;1.95;;;0.75;;
64609;SDS011;51019;46.090;6.350;2023-01-16T09:23:49;2.13;;;0.93;;
64609;SDS011;51019;46.090;6.350;2023-01-16T09:26:18;6.60;;;1.50;;
64609;SDS011;51019;46.090;6.350;2023-01-16T09:28:46;4.03;;;1.15;;
64609;SDS011;51019;46.090;6.350;2023-01-16T09:31:13;4.13;;;1.30;;
64609;SDS011;51019;46.090;6.350;2023-01-16T09:33:40;2.83;;;1.27;;
64609;SDS011;51019;46.090;6.350;2023-01-16T09:36:08;3.35;;;1.13;;
64609;SDS011;51019;46.090;6.350;2023-01-16T09:38:35;3.00;;;1.10;;
64609;SDS011;51019;46.090;6.350;2023-01-16T09:41:03;6.20;;;1.10;;
64609;SDS011;51019;46.090;6.350;2023-01-16T09:43:35;7.28;;;1.65;;
64609;SDS011;51019;46.090;6.350;2023-01-16T09:46:09;6.57;;;1.63;;
64609;SDS011;51019;46.090;6.350;2023-01-16T09:48:42;6.03;;;1.40;;
64609;SDS011;51019;46.090;6.350;2023-01-16T09:51:16;4.68;;;1.33;;
64609;SDS011;51019;46.090;6.350;2023-01-16T09:53:48;3.38;;;1.10;;
64609;SDS011;51019;46.090;6.350;2023-01-16T09:56:39;5.97;;;1.30;;
64609;SDS011;51019;46.090;6.350;2023-01-16T09:59:38;5.60;;;1.23;;
64609;SDS011;51019;46.090;6.350;2023-01-16T10:02:11;2.92;;;1.00;;
64609;SDS011;51019;46.090;6.350;2023-01-16T10:04:46;2.22;;;0.80;;
64609;SDS011;51019;46.090;6.350;2023-01-16T10:07:19;1.95;;;0.85;;
64609;SDS011;51019;46.090;6.350;2023-01-16T10:10:05;4.65;;;1.40;;
64609;SDS011;51019;46.090;6.350;2023-01-16T10:12:48;0.90;;;0.73;;
64609;SDS011;51019;46.090;6.350;2023-01-16T10:15:23;25.98;;;6.80;;
64609;SDS011;51019;46.090;6.350;2023-01-16T10:18:04;5.13;;;1.02;;
64609;SDS011;51019;46.090;6.350;2023-01-16T10:20:47;3.85;;;1.38;;
64609;SDS011;51019;46.090;6.350;2023-01-16T10:23:31;7.75;;;2.47;;
64609;SDS011;51019;46.090;6.350;2023-01-16T10:26:08;3.20;;;1.00;;
64609;SDS011;51019;46.090;6.350;2023-01-16T10:28:50;1.10;;;0.70;;
64609;SDS011;51019;46.090;6.350;2023-01-16T10:31:27;7.63;;;1.40;;
64609;SDS011;51019;46.090;6.350;2023-01-16T10:33:59;1.77;;;0.75;;
64609;SDS011;51019;46.090;6.350;2023-01-16T10:36:32;2.65;;;1.33;;
64609;SDS011;51019;46.090;6.350;2023-01-16T10:39:08;4.97;;;1.40;;
64609;SDS011;51019;46.090;6.350;2023-01-16T10:41:38;4.68;;;1.40;;
64609;SDS011;51019;46.090;6.350;2023-01-16T10:44:30;7.72;;;1.45;;
64609;SDS011;51019;46.090;6.350;2023-01-16T10:47:18;6.07;;;1.58;;
64609;SDS011;51019;46.090;6.350;2023-01-16T10:50:05;7.45;;;1.42;;
64609;SDS011;51019;46.090;6.350;2023-01-16T10:52:34;5.60;;;1.20;;
64609;SDS011;51019;46.090;6.350;2023-01-16T10:55:02;6.07;;;1.80;;
64609;SDS011;51019;46.090;6.350;2023-01-16T10:57:31;5.43;;;1.45;;
64609;SDS011;51019;46.090;6.350;2023-01-16T11:00:00;4.65;;;1.30;;
64609;SDS011;51019;46.090;6.350;2023-01-16T11:02:34;7.28;;;2.05;;
64609;SDS011;51019;46.090;6.350;2023-01-16T11:07:51;8.50;;;1.90;;
64609;SDS011;51019;46.090;6.350;2023-01-16T11:10:20;7.50;;;1.70;;
64609;SDS011;51019;46.090;6.350;2023-01-16T11:12:49;6.80;;;1.90;;
64609;SDS011;51019;46.090;6.350;2023-01-16T11:15:35;10.15;;;1.30;;
64609;SDS011;51019;46.090;6.350;2023-01-16T11:18:26;5.50;;;1.65;;
64609;SDS011;51019;46.090;6.350;2023-01-16T11:20:56;4.68;;;1.55;;
64609;SDS011;51019;46.090;6.350;2023-01-16T11:23:26;6.75;;;1.65;;
64609;SDS011;51019;46.090;6.350;2023-01-16T11:26:00;7.13;;;1.80;;
64609;SDS011;51019;46.090;6.350;2023-01-16T11:28:29;4.60;;;1.60;;
64609;SDS011;51019;46.090;6.350;2023-01-16T11:30:59;6.80;;;1.90;;
64609;SDS011;51019;46.090;6.350;2023-01-16T11:33:34;8.60;;;1.50;;
64609;SDS011;51019;46.090;6.350;2023-01-16T11:36:05;11.55;;;1.90;;
64609;SDS011;51019;46.090;6.350;2023-01-16T11:38:34;7.47;;;1.50;;
64609;SDS011;51019;46.090;6.350;2023-01-16T11:41:05;8.82;;;2.00;;
64609;SDS011;51019;46.090;6.350;2023-01-16T11:43:34;7.57;;;1.90;;
64609;SDS011;51019;46.090;6.350;2023-01-16T11:46:20;5.15;;;1.52;;
64609;SDS011;51019;46.090;6.350;2023-01-16T11:48:59;3.50;;;1.38;;
64609;SDS011;51019;46.090;6.350;2023-01-16T11:51:28;5.82;;;1.42;;
64609;SDS011;51019;46.090;6.350;2023-01-16T11:53:58;2.88;;;0.90;;
64609;SDS011;51019;46.090;6.350;2023-01-16T11:56:40;1.63;;;0.90;;
64609;SDS011;51019;46.090;6.350;2023-01-16T11:59:33;1.48;;;0.68;;
64609;SDS011;51019;46.090;6.350;2023-01-16T12:02:25;2.33;;;0.93;;
64609;SDS011;51019;46.090;6.350;2023-01-16T12:05:13;2.80;;;0.77;;
64609;SDS011;51019;46.090;6.350;2023-01-16T12:08:13;1.92;;;0.70;;
64609;SDS011;51019;46.090;6.350;2023-01-16T12:10:52;2.83;;;1.02;;
64609;SDS011;51019;46.090;6.350;2023-01-16T12:13:29;7.85;;;1.98;;
64609;SDS011;51019;46.090;6.350;2023-01-16T12:16:25;8.07;;;1.90;;
64609;SDS011;51019;46.090;6.350;2023-01-16T12:19:09;3.05;;;0.90;;
64609;SDS011;51019;46.090;6.350;2023-01-16T12:21:55;4.80;;;1.00;;
64609;SDS011;51019;46.090;6.350;2023-01-16T12:24:32;5.55;;;0.90;;
64609;SDS011;51019;46.090;6.350;2023-01-16T12:27:11;3.17;;;0.75;;
64609;SDS011;51019;46.090;6.350;2023-01-16T12:29:48;4.70;;;0.82;;
64609;SDS011;51019;46.090;6.350;2023-01-16T12:32:29;1.00;;;0.70;;
64609;SDS011;51019;46.090;6.350;2023-01-16T12:35:09;1.52;;;0.88;;
64609;SDS011;51019;46.090;6.350;2023-01-16T12:44:05;4.78;;;1.00;;
64609;SDS011;51019;46.090;6.350;2023-01-16T12:47:01;3.10;;;0.80;;
64609;SDS011;51019;46.090;6.350;2023-01-16T12:49:46;3.08;;;0.80;;
64609;SDS011;51019;46.090;6.350;2023-01-16T12:52:31;3.13;;;1.00;;
64609;SDS011;51019;46.090;6.350;2023-01-16T12:55:16;1.45;;;0.50;;
64609;SDS011;51019;46.090;6.350;2023-01-16T12:57:52;2.70;;;0.98;;
64609;SDS011;51019;46.090;6.350;2023-01-16T13:00:30;2.35;;;0.80;;
64609;SDS011;51019;46.090;6.350;2023-01-16T13:03:00;3.22;;;0.90;;
64609;SDS011;51019;46.090;6.350;2023-01-16T13:05:37;9.13;;;1.17;;
64609;SDS011;51019;46.090;6.350;2023-01-16T13:08:11;3.03;;;1.10;;
64609;SDS011;51019;46.090;6.350;2023-01-16T13:10:49;4.03;;;0.88;;
64609;SDS011;51019;46.090;6.350;2023-01-16T13:13:39;1.00;;;0.70;;
64609;SDS011;51019;46.090;6.350;2023-01-16T13:16:13;2.45;;;0.80;;
64609;SDS011;51019;46.090;6.350;2023-01-16T13:18:47;1.70;;;0.90;;
64609;SDS011;51019;46.090;6.350;2023-01-16T13:21:19;1.88;;;0.85;;
64609;SDS011;51019;46.090;6.350;2023-01-16T13:23:50;2.70;;;0.95;;
64609;SDS011;51019;46.090;6.350;2023-01-16T13:26:23;3.45;;;1.30;;
64609;SDS011;51019;46.090;6.350;2023-01-16T13:28:53;3.22;;;1.00;;
64609;SDS011;51019;46.090;6.350;2023-01-16T13:31:30;2.90;;;1.05;;
64609;SDS011;51019;46.090;6.350;2023-01-16T13:34:03;3.10;;;1.23;;
64609;SDS011;51019;46.090;6.350;2023-01-16T13:42:49;3.42;;;1.00;;
64609;SDS011;51019;46.090;6.350;2023-01-16T13:45:23;2.40;;;0.70;;
64609;SDS011;51019;46.090;6.350;2023-01-16T13:48:14;2.00;;;0.82;;
64609;SDS011;51019;46.090;6.350;2023-01-16T13:50:44;1.70;;;0.68;;
64609;SDS011;51019;46.090;6.350;2023-01-16T13:53:17;3.47;;;1.10;;
64609;SDS011;51019;46.090;6.350;2023-01-16T13:55:47;3.42;;;0.95;;
64609;SDS011;51019;46.090;6.350;2023-01-16T13:58:18;5.10;;;1.38;;
64609;SDS011;51019;46.090;6.350;2023-01-16T14:00:55;2.78;;;0.98;;
64609;SDS011;51019;46.090;6.350;2023-01-16T14:03:24;3.03;;;0.98;;
64609;SDS011;51019;46.090;6.350;2023-01-16T14:05:53;3.20;;;1.00;;
64609;SDS011;51019;46.090;6.350;2023-01-16T14:08:25;2.15;;;1.02;;
64609;SDS011;51019;46.090;6.350;2023-01-16T14:11:27;1.77;;;0.90;;
64609;SDS011;51019;46.090;6.350;2023-01-16T14:17:27;3.53;;;1.10;;
64609;SDS011;51019;46.090;6.350;2023-01-16T14:19:57;4.45;;;1.02;;
64609;SDS011;51019;46.090;6.350;2023-01-16T14:22:26;2.65;;;0.88;;
64609;SDS011;51019;46.090;6.350;2023-01-16T14:25:19;2.05;;;1.00;;
64609;SDS011;51019;46.090;6.350;2023-01-16T14:27:51;3.15;;;1.13;;
64609;SDS011;51019;46.090;6.350;2023-01-16T14:30:32;8.43;;;1.63;;
64609;SDS011;51019;46.090;6.350;2023-01-16T14:33:03;8.40;;;1.88;;
64609;SDS011;51019;46.090;6.350;2023-01-16T14:35:39;3.67;;;1.40;;
64609;SDS011;51019;46.090;6.350;2023-01-16T14:38:11;5.03;;;1.40;;
64609;SDS011;51019;46.090;6.350;2023-01-16T14:40:46;6.63;;;1.50;;
64609;SDS011;51019;46.090;6.350;2023-01-16T14:43:34;5.18;;;1.52;;
64609;SDS011;51019;46.090;6.350;2023-01-16T14:46:28;9.45;;;2.10;;
64609;SDS011;51019;46.090;6.350;2023-01-16T14:55:28;4.90;;;1.35;;
64609;SDS011;51019;46.090;6.350;2023-01-16T14:57:58;5.93;;;1.48;;
64609;SDS011;51019;46.090;6.350;2023-01-16T15:00:27;4.63;;;1.63;;
64609;SDS011;51019;46.090;6.350;2023-01-16T15:02:57;2.95;;;1.10;;
64609;SDS011;51019;46.090;6.350;2023-01-16T15:05:32;5.32;;;1.40;;
64609;SDS011;51019;46.090;6.350;2023-01-16T15:08:16;5.55;;;1.25;;
64609;SDS011;51019;46.090;6.350;2023-01-16T15:10:46;8.07;;;1.75;;
64609;SDS011;51019;46.090;6.350;2023-01-16T15:13:20;5.85;;;1.60;;
64609;SDS011;51019;46.090;6.350;2023-01-16T15:15:49;3.80;;;1.30;;
64609;SDS011;51019;46.090;6.350;2023-01-16T15:18:21;9.07;;;1.60;;
64609;SDS011;51019;46.090;6.350;2023-01-16T15:21:12;10.55;;;1.80;;
64609;SDS011;51019;46.090;6.350;2023-01-16T15:24:00;10.07;;;2.42;;
64609;SDS011;51019;46.090;6.350;2023-01-16T15:26:39;8.25;;;1.77;;
64609;SDS011;51019;46.090;6.350;2023-01-16T15:32:09;9.02;;;2.20;;
64609;SDS011;51019;46.090;6.350;2023-01-16T15:34:43;21.30;;;8.02;;
64609;SDS011;51019;46.090;6.350;2023-01-16T15:37:19;10.63;;;2.70;;
64609;SDS011;51019;46.090;6.350;2023-01-16T15:39:49;10.38;;;2.85;;
64609;SDS011;51019;46.090;6.350;2023-01-16T15:42:18;10.45;;;2.90;;
64609;SDS011;51019;46.090;6.350;2023-01-16T15:45:14;10.60;;;3.25;;
64609;SDS011;51019;46.090;6.350;2023-01-16T15:48:07;9.48;;;2.30;;
64609;SDS011;51019;46.090;6.350;2023-01-16T15:50:50;13.35;;;3.95;;
64609;SDS011;51019;46.090;6.350;2023-01-16T15:53:22;13.85;;;4.10;;
64609;SDS011;51019;46.090;6.350;2023-01-16T15:55:56;10.80;;;3.35;;
64609;SDS011;51019;46.090;6.350;2023-01-16T15:58:27;15.15;;;5.90;;